createdAt,value
2022-10-21T00:04:10.644Z,93742.78
2022-10-21T00:06:37.162Z,93750.00
2022-10-21T00:09:03.721Z,93732.31
2022-10-21T00:11:30.180Z,93730.63
2022-10-21T00:13:56.675Z,93751.75
2022-10-21T00:16:23.109Z,93735.44
2022-10-21T00:18:49.554Z,93732.28
2022-10-21T00:21:19.129Z,93721.63
2022-10-21T00:23:46.933Z,93736.22
2022-10-21T00:26:14.521Z,93733.38
2022-10-21T00:28:41.792Z,93763.47
2022-10-21T00:31:09.989Z,93723.59
2022-10-21T00:33:36.844Z,93738.00
2022-10-21T00:36:06.059Z,93743.97
2022-10-21T00:38:33.461Z,93713.34
2022-10-21T00:41:00.216Z,93728.91
2022-10-21T00:43:28.247Z,93748.75
2022-10-21T00:46:02.042Z,93719.16
2022-10-21T00:48:42.359Z,93705.78
2022-10-21T00:51:16.987Z,93728.22
2022-10-21T00:53:47.535Z,93710.97
2022-10-21T00:56:18.596Z,93720.47
2022-10-21T00:58:47.645Z,93723.41
2022-10-21T01:01:17.955Z,93724.22
2022-10-21T01:03:48.800Z,93724.06
2022-10-21T01:06:18.422Z,93731.25
2022-10-21T01:08:44.905Z,93720.47
2022-10-21T01:11:15.334Z,93721.66
2022-10-21T01:14:06.115Z,93718.38
2022-10-21T01:16:47.369Z,93724.53
2022-10-21T01:19:17.672Z,93659.56
2022-10-21T01:21:54.127Z,93708.09
2022-10-21T01:24:32.828Z,93716.06
2022-10-21T01:27:39.425Z,93714.66
2022-10-21T01:30:11.172Z,93693.13
2022-10-21T01:32:52.197Z,93692.31
2022-10-21T01:35:18.530Z,93715.94
2022-10-21T01:38:07.970Z,93704.16
2022-10-21T01:40:51.406Z,93679.06
2022-10-21T01:43:33.024Z,93703.34
2022-10-21T01:46:09.647Z,93703.38
2022-10-21T01:48:50.337Z,93687.25
2022-10-21T01:51:19.244Z,93692.50
2022-10-21T01:53:51.970Z,93703.28
2022-10-21T01:56:20.457Z,93676.78
2022-10-21T01:58:48.904Z,93665.59
2022-10-21T02:01:17.695Z,93660.56
2022-10-21T02:03:47.878Z,93673.38
2022-10-21T02:06:14.386Z,93653.69
2022-10-21T02:08:42.503Z,93675.44
2022-10-21T02:11:10.780Z,93679.31
2022-10-21T02:13:48.019Z,93686.97
2022-10-21T02:16:18.518Z,93688.69
2022-10-21T02:18:49.081Z,93657.69
2022-10-21T02:21:22.547Z,93685.16
2022-10-21T02:24:05.053Z,93655.19
2022-10-21T02:26:31.547Z,93656.34
2022-10-21T02:28:59.303Z,93648.50
2022-10-21T02:31:48.780Z,93673.53
2022-10-21T02:34:30.313Z,93646.19
2022-10-21T02:37:20.571Z,93631.88
2022-10-21T02:39:49.346Z,93656.44
2022-10-21T02:42:23.050Z,93650.75
2022-10-21T02:44:49.486Z,93633.13
2022-10-21T02:47:16.735Z,93639.16
2022-10-21T02:49:46.415Z,93630.03
2022-10-21T02:52:13.028Z,93637.94
2022-10-21T02:54:39.524Z,93649.44
2022-10-21T02:57:05.952Z,93651.06
2022-10-21T02:59:32.348Z,93627.06
2022-10-21T03:01:58.904Z,93657.22
2022-10-21T03:04:25.363Z,93671.41
2022-10-21T03:06:51.836Z,93642.53
2022-10-21T03:09:18.290Z,93632.03
2022-10-21T03:11:44.852Z,93634.66
2022-10-21T03:14:11.226Z,93643.16
2022-10-21T03:16:37.727Z,93609.53
2022-10-21T03:19:04.119Z,93586.56
2022-10-21T03:21:30.590Z,93610.44
2022-10-21T03:23:56.966Z,93644.66
2022-10-21T03:26:23.420Z,93619.75
2022-10-21T03:28:49.794Z,93607.31
2022-10-21T03:31:16.271Z,93603.97
2022-10-21T03:33:42.657Z,93603.72
2022-10-21T03:36:09.065Z,93566.69
2022-10-21T03:38:35.614Z,93567.34
2022-10-21T03:41:02.068Z,93602.31
2022-10-21T03:43:28.443Z,93582.53
2022-10-21T03:45:54.852Z,93584.00
2022-10-21T03:48:21.283Z,93591.19
2022-10-21T03:50:47.672Z,93576.72
2022-10-21T03:53:30.996Z,93590.66
2022-10-21T03:56:00.451Z,93550.81
2022-10-21T03:58:28.305Z,93578.38
2022-10-21T04:00:55.538Z,93582.25
2022-10-21T04:03:22.343Z,93567.34
2022-10-21T04:05:48.731Z,93563.94
2022-10-21T04:08:15.194Z,93582.50
2022-10-21T04:10:41.709Z,93551.78
2022-10-21T04:13:16.367Z,93558.06
2022-10-21T04:15:49.863Z,93571.94
2022-10-21T04:18:19.392Z,93552.94
2022-10-21T04:20:49.017Z,93550.69
2022-10-21T04:23:30.838Z,93528.97
2022-10-21T04:25:57.563Z,93541.75
2022-10-21T04:28:24.007Z,93532.47
2022-10-21T04:30:53.706Z,93547.50
2022-10-21T04:33:20.202Z,93553.06
2022-10-21T04:35:46.599Z,93528.03
2022-10-21T04:38:13.038Z,93521.13
2022-10-21T04:40:40.613Z,93538.72
2022-10-21T04:43:07.458Z,93537.13
2022-10-21T04:45:33.903Z,93544.94
2022-10-21T04:48:00.328Z,93563.94
2022-10-21T04:50:26.804Z,93528.94
2022-10-21T04:52:53.234Z,93522.78
2022-10-21T04:55:34.939Z,93463.13
2022-10-21T04:58:01.383Z,93518.88
2022-10-21T05:00:27.786Z,93520.66
2022-10-21T05:02:54.212Z,93495.28
2022-10-21T05:05:20.655Z,93534.13
2022-10-21T05:07:47.129Z,93511.16
2022-10-21T05:10:13.588Z,93498.00
2022-10-21T05:12:39.994Z,93501.22
2022-10-21T05:15:06.817Z,93524.97
2022-10-21T05:17:33.200Z,93496.16
2022-10-21T05:19:59.589Z,93480.16
2022-10-21T05:22:25.981Z,93484.97
2022-10-21T05:24:52.364Z,93479.59
2022-10-21T05:27:18.779Z,93479.53
2022-10-21T05:29:45.232Z,93481.56
2022-10-21T05:32:11.693Z,93507.81
2022-10-21T05:34:38.077Z,93483.88
2022-10-21T05:37:04.556Z,93484.00
2022-10-21T05:39:30.965Z,93448.69
2022-10-21T05:41:57.429Z,93460.59
2022-10-21T05:44:23.836Z,93469.72
2022-10-21T05:46:50.224Z,93464.94
2022-10-21T05:49:16.613Z,93467.50
2022-10-21T05:51:44.674Z,93441.13
2022-10-21T05:54:11.210Z,93407.41
2022-10-21T05:56:37.691Z,93438.28
2022-10-21T05:59:06.621Z,93459.28
2022-10-21T06:01:35.978Z,93439.94
2022-10-21T06:04:04.621Z,93444.97
2022-10-21T06:06:31.073Z,93414.72
2022-10-21T06:08:57.653Z,93412.88
2022-10-21T06:11:24.229Z,93407.97
2022-10-21T06:13:50.694Z,93433.47
2022-10-21T06:16:17.172Z,93448.34
2022-10-21T06:18:43.809Z,93451.88
2022-10-21T06:21:10.616Z,93433.75
2022-10-21T06:23:37.115Z,93419.41
2022-10-21T06:26:21.630Z,93446.88
2022-10-21T06:28:50.143Z,93432.22
2022-10-21T06:31:18.848Z,93456.22
2022-10-21T06:33:45.284Z,93447.53
2022-10-21T06:36:11.688Z,93437.03
2022-10-21T06:38:38.322Z,93434.63
2022-10-21T06:41:13.064Z,93456.34
2022-10-21T06:43:40.721Z,93446.88
2022-10-21T06:46:10.655Z,93456.47
2022-10-21T06:48:37.370Z,93409.91
2022-10-21T06:51:06.867Z,93452.66
2022-10-21T06:53:36.562Z,93458.47
2022-10-21T06:56:24.840Z,93448.56
2022-10-21T06:58:51.936Z,93425.94
2022-10-21T07:01:33.495Z,93442.75
2022-10-21T07:04:06.902Z,93418.09
2022-10-21T07:09:07.223Z,93425.19
2022-10-21T07:11:33.855Z,93424.41
2022-10-21T07:14:01.833Z,93412.75
2022-10-21T07:16:34.337Z,93425.28
2022-10-21T07:19:01.037Z,93403.38
2022-10-21T07:21:29.279Z,93353.84
2022-10-21T07:23:59.342Z,93445.47
2022-10-21T07:26:28.815Z,93444.69
2022-10-21T07:28:58.082Z,93416.47
2022-10-21T07:31:25.187Z,93433.16
2022-10-21T07:33:51.935Z,93409.84
2022-10-21T07:36:25.584Z,93429.34
2022-10-21T07:38:53.863Z,93438.25
2022-10-21T07:41:24.334Z,93425.13
2022-10-21T07:43:51.550Z,93413.63
2022-10-21T07:46:19.708Z,93437.75
2022-10-21T07:48:46.443Z,93436.28
2022-10-21T07:51:16.315Z,93452.44
2022-10-21T07:53:45.918Z,93464.22
2022-10-21T07:56:22.173Z,93450.97
2022-10-21T07:58:50.160Z,93443.00
2022-10-21T08:01:17.642Z,93456.88
2022-10-21T08:03:44.731Z,93482.44
2022-10-21T08:06:12.954Z,93508.50
2022-10-21T08:08:39.985Z,93530.19
2022-10-21T08:11:07.884Z,93555.19
2022-10-21T08:13:35.136Z,93557.19
2022-10-21T08:16:04.258Z,93566.44
2022-10-21T08:18:32.374Z,93573.91
2022-10-21T08:20:58.807Z,93551.34
2022-10-21T08:23:26.365Z,93553.38
2022-10-21T08:25:56.414Z,93599.41
2022-10-21T08:28:25.117Z,93610.25
2022-10-21T08:30:53.153Z,93607.75
2022-10-21T08:33:19.702Z,93611.50
2022-10-21T08:35:46.253Z,93575.34
2022-10-21T08:38:12.727Z,93619.47
2022-10-21T08:40:46.208Z,93631.84
2022-10-21T08:43:25.154Z,93638.66
2022-10-21T08:45:55.533Z,93627.66
2022-10-21T08:48:37.415Z,93628.22
2022-10-21T08:51:06.168Z,93644.75
2022-10-21T08:53:45.873Z,93641.19
2022-10-21T08:56:19.335Z,93616.53
2022-10-21T08:58:50.909Z,93645.44
2022-10-21T09:01:39.274Z,93640.13
2022-10-21T09:04:22.101Z,93617.22
2022-10-21T09:07:12.246Z,93592.25
2022-10-21T09:09:51.085Z,93631.75
2022-10-21T09:12:26.598Z,93621.44
2022-10-21T09:15:14.212Z,93618.78
2022-10-21T09:18:05.535Z,93622.19
2022-10-21T09:21:05.798Z,93628.28
2022-10-21T09:23:47.687Z,93627.41
2022-10-21T09:26:52.295Z,93629.56
2022-10-21T09:29:32.554Z,93635.38
2022-10-21T09:32:04.969Z,93638.66
2022-10-21T09:35:14.449Z,93642.34
2022-10-21T09:37:49.115Z,93637.72
2022-10-21T09:40:28.475Z,93666.63
2022-10-21T09:42:59.520Z,93668.84
2022-10-21T09:45:35.150Z,93622.69
2022-10-21T09:48:22.651Z,93674.59
2022-10-21T09:50:52.213Z,93691.38
2022-10-21T09:53:26.381Z,93674.94
2022-10-21T09:56:01.962Z,93688.22
2022-10-21T09:58:44.245Z,93701.19
2022-10-21T10:01:17.928Z,93712.28
2022-10-21T10:03:49.789Z,93693.34
2022-10-21T10:06:43.952Z,93690.19
2022-10-21T10:09:44.672Z,93733.16
2022-10-21T10:12:22.719Z,93698.81
2022-10-21T10:14:49.963Z,93729.66
2022-10-21T10:17:25.661Z,93740.22
2022-10-21T10:20:04.003Z,93733.66
2022-10-21T10:22:59.878Z,93737.09
2022-10-21T10:25:35.935Z,93719.56
2022-10-21T10:28:19.943Z,93746.13
2022-10-21T10:30:56.823Z,93745.88
2022-10-21T10:33:32.530Z,93745.97
2022-10-21T10:36:05.208Z,93729.53
2022-10-21T10:38:52.666Z,93736.66
2022-10-21T10:41:19.438Z,93715.19
2022-10-21T10:43:53.459Z,93750.06
2022-10-21T10:46:30.472Z,93754.88
2022-10-21T10:49:03.660Z,93738.53
2022-10-21T10:51:32.410Z,93753.91
2022-10-21T10:54:07.654Z,93758.28
2022-10-21T10:56:42.606Z,93754.72
2022-10-21T10:59:14.575Z,93767.88
2022-10-21T11:02:09.972Z,93758.53
2022-10-21T11:07:33.517Z,93742.44
2022-10-21T11:10:30.105Z,93773.31
2022-10-21T11:12:56.658Z,93770.59
2022-10-21T11:15:37.316Z,93740.69
2022-10-21T11:18:25.079Z,93753.59
2022-10-21T11:21:07.369Z,93781.31
2022-10-21T11:23:54.313Z,93766.13
2022-10-21T11:26:39.928Z,93745.94
2022-10-21T11:29:09.270Z,93754.28
2022-10-21T11:32:26.974Z,93763.88
2022-10-21T11:35:04.222Z,93757.53
2022-10-21T11:37:46.361Z,93733.50
2022-10-21T11:40:34.767Z,93762.72
2022-10-21T11:43:46.146Z,93766.88
2022-10-21T11:46:27.202Z,93729.63
2022-10-21T11:49:08.728Z,93755.75
2022-10-21T11:51:44.384Z,93761.75
2022-10-21T11:54:55.554Z,93737.69
2022-10-21T11:58:04.437Z,93761.25
2022-10-21T12:00:43.958Z,93754.06
2022-10-21T12:03:30.146Z,93725.09
2022-10-21T12:06:01.912Z,93755.31
2022-10-21T12:08:48.184Z,93725.34
2022-10-21T12:11:26.325Z,93744.03
2022-10-21T12:13:59.265Z,93744.34
2022-10-21T12:16:33.391Z,93760.69
2022-10-21T12:19:06.971Z,93746.75
2022-10-21T12:21:36.990Z,93745.44
2022-10-21T12:24:24.604Z,93737.66
2022-10-21T12:26:59.161Z,93747.88
2022-10-21T12:30:01.470Z,93744.50
2022-10-21T12:32:41.562Z,93750.06
2022-10-21T12:35:16.080Z,93733.66
2022-10-21T12:37:46.525Z,93754.78
2022-10-21T12:40:25.012Z,93759.09
2022-10-21T12:43:01.221Z,93730.69
2022-10-21T12:45:28.601Z,93753.47
2022-10-21T12:47:56.548Z,93729.81
2022-10-21T12:50:26.203Z,93757.31
2022-10-21T12:53:13.122Z,93727.72
2022-10-21T12:55:41.210Z,93755.72
2022-10-21T12:58:22.524Z,93726.94
2022-10-21T13:00:50.660Z,93744.16
2022-10-21T13:03:21.409Z,93702.25
2022-10-21T13:05:47.795Z,93750.00
2022-10-21T13:08:20.516Z,93754.50
2022-10-21T13:11:05.488Z,93744.94
2022-10-21T13:13:40.916Z,93743.19
2022-10-21T13:16:19.641Z,93739.91
2022-10-21T13:19:23.788Z,93719.63
2022-10-21T13:22:01.069Z,93732.94
2022-10-21T13:24:33.134Z,93709.94
2022-10-21T13:27:05.602Z,93702.59
2022-10-21T13:29:42.435Z,93682.28
2022-10-21T13:32:36.721Z,93725.78
2022-10-21T13:35:20.682Z,93728.50
2022-10-21T13:37:57.321Z,93721.84
2022-10-21T13:40:26.368Z,93725.31
2022-10-21T13:43:15.683Z,93735.03
2022-10-21T13:45:51.361Z,93732.28
2022-10-21T13:48:20.216Z,93720.66
2022-10-21T13:50:48.771Z,93728.19
2022-10-21T13:53:18.381Z,93738.75
2022-10-21T13:56:08.554Z,93732.94
2022-10-21T13:58:39.241Z,93698.13
2022-10-21T14:01:12.244Z,93722.53
2022-10-21T14:03:39.626Z,93702.09
2022-10-21T14:06:08.794Z,93712.81
2022-10-21T14:08:43.660Z,93718.72
2022-10-21T14:11:34.739Z,93716.63
2022-10-21T14:14:07.553Z,93712.94
2022-10-21T14:16:49.378Z,93718.63
2022-10-21T14:19:22.839Z,93726.19
2022-10-21T14:21:53.831Z,93711.72
2022-10-21T14:24:26.303Z,93743.69
2022-10-21T14:26:53.329Z,93715.41
2022-10-21T14:29:23.465Z,93724.19
2022-10-21T14:31:50.313Z,93721.94
2022-10-21T14:34:32.079Z,93732.50
2022-10-21T14:37:01.462Z,93736.50
2022-10-21T14:39:28.684Z,93737.78
2022-10-21T14:41:56.470Z,93714.31
2022-10-21T14:44:26.472Z,93714.22
2022-10-21T14:46:53.797Z,93718.38
2022-10-21T14:49:29.287Z,93705.00
2022-10-21T14:51:58.766Z,93732.03
2022-10-21T14:54:31.117Z,93723.09
2022-10-21T14:56:58.316Z,93698.13
2022-10-21T14:59:32.101Z,93719.91
2022-10-21T15:02:00.865Z,93728.53
2022-10-21T15:04:53.699Z,93719.97
2022-10-21T15:07:29.929Z,93704.03
2022-10-21T15:10:02.301Z,93718.97
2022-10-21T15:12:45.009Z,93711.44
2022-10-21T15:15:52.420Z,93717.41
2022-10-21T15:18:27.896Z,93686.63
2022-10-21T15:21:01.531Z,93700.66
2022-10-21T15:23:32.744Z,93717.94
2022-10-21T15:26:16.442Z,93716.34
2022-10-21T15:28:45.410Z,93704.03
2022-10-21T15:31:17.531Z,93712.94
2022-10-21T15:33:44.451Z,93707.97
2022-10-21T15:36:14.186Z,93720.88
2022-10-21T15:38:46.585Z,93695.66
2022-10-21T15:41:18.798Z,93703.81
2022-10-21T15:43:57.804Z,93697.28
2022-10-21T15:46:27.460Z,93727.28
2022-10-21T15:48:53.895Z,93698.00
2022-10-21T15:51:33.557Z,93718.38
2022-10-21T15:53:59.944Z,93709.28
2022-10-21T15:56:26.839Z,93690.84
2022-10-21T15:58:53.207Z,93682.25
2022-10-21T16:01:19.647Z,93727.75
2022-10-21T16:03:46.070Z,93707.75
2022-10-21T16:06:19.623Z,93735.91
2022-10-21T16:08:47.746Z,93720.69
2022-10-21T16:11:21.847Z,93686.28
2022-10-21T16:13:57.412Z,93697.34
2022-10-21T16:16:25.336Z,93720.13
2022-10-21T16:18:53.389Z,93708.22
2022-10-21T16:21:22.470Z,93687.19
2022-10-21T16:23:49.833Z,93703.91
2022-10-21T16:26:16.287Z,93705.03
2022-10-21T16:28:42.980Z,93702.97
2022-10-21T16:31:14.972Z,93689.94
2022-10-21T16:33:42.111Z,93690.38
2022-10-21T16:36:22.459Z,93718.78
2022-10-21T16:38:50.988Z,93703.59
2022-10-21T16:41:28.754Z,93722.00
2022-10-21T16:43:56.296Z,93701.16
2022-10-21T16:46:30.960Z,93716.50
2022-10-21T16:48:58.776Z,93696.84
2022-10-21T16:51:28.504Z,93703.69
2022-10-21T16:53:54.957Z,93707.22
2022-10-21T16:56:21.409Z,93701.16
2022-10-21T16:58:47.990Z,93707.81
2022-10-21T17:01:18.639Z,93702.44
2022-10-21T17:03:45.281Z,93724.97
2022-10-21T17:06:15.575Z,93737.53
2022-10-21T17:08:42.760Z,93728.16
2022-10-21T17:11:14.127Z,93726.31
2022-10-21T17:13:51.056Z,93718.53
2022-10-21T17:16:21.357Z,93730.09
2022-10-21T17:18:54.851Z,93719.25
2022-10-21T17:21:24.776Z,93719.47
2022-10-21T17:23:52.167Z,93747.69
2022-10-21T17:26:24.449Z,93719.47
2022-10-21T17:28:51.793Z,93719.91
2022-10-21T17:31:27.062Z,93724.25
2022-10-21T17:33:56.348Z,93719.91
2022-10-21T17:36:22.986Z,93719.19
2022-10-21T17:38:50.802Z,93730.44
2022-10-21T17:41:20.406Z,93702.28
2022-10-21T17:43:48.191Z,93688.66
2022-10-21T17:46:19.100Z,93735.03
2022-10-21T17:48:52.962Z,93693.16
2022-10-21T17:51:19.999Z,93718.78
2022-10-21T17:53:51.989Z,93708.00
2022-10-21T17:56:19.040Z,93694.50
2022-10-21T17:58:49.128Z,93715.78
2022-10-21T18:01:15.917Z,93720.03
2022-10-21T18:03:42.481Z,93694.84
2022-10-21T18:06:11.179Z,93726.31
2022-10-21T18:08:39.813Z,93713.59
2022-10-21T18:11:09.722Z,93715.22
2022-10-21T18:13:39.242Z,93688.81
2022-10-21T18:16:09.147Z,93697.97
2022-10-21T18:18:37.532Z,93701.38
2022-10-21T18:21:06.339Z,93719.81
2022-10-21T18:23:37.787Z,93705.28
2022-10-21T18:26:06.383Z,93700.94
2022-10-21T18:28:35.989Z,93694.78
2022-10-21T18:31:03.600Z,93701.16
2022-10-21T18:33:30.403Z,93670.50
2022-10-21T18:35:57.114Z,93692.16
2022-10-21T18:38:30.920Z,93688.81
2022-10-21T18:41:15.401Z,93681.50
2022-10-21T18:44:00.209Z,93676.00
2022-10-21T18:46:27.527Z,93670.53
2022-10-21T18:48:56.175Z,93660.13
2022-10-21T18:51:23.846Z,93640.56
2022-10-21T18:53:52.807Z,93621.56
2022-10-21T18:56:21.671Z,93635.97
2022-10-21T18:58:48.720Z,93633.59
2022-10-21T19:01:15.966Z,93615.41
2022-10-21T19:03:43.226Z,93600.19
2022-10-21T19:06:47.868Z,93612.88
2022-10-21T19:09:22.490Z,93619.06
2022-10-21T19:11:49.377Z,93629.00
2022-10-21T19:14:16.257Z,93597.69
2022-10-21T19:16:45.511Z,93611.53
2022-10-21T19:19:12.974Z,93613.22
2022-10-21T19:21:39.503Z,93630.63
2022-10-21T19:24:06.524Z,93630.28
2022-10-21T19:26:36.216Z,93602.81
2022-10-21T19:29:07.135Z,93617.13
2022-10-21T19:31:52.765Z,93628.66
2022-10-21T19:34:23.218Z,93628.66
2022-10-21T19:36:50.654Z,93624.34
2022-10-21T19:39:21.039Z,93595.41
2022-10-21T19:42:05.097Z,93621.72
2022-10-21T19:44:49.956Z,93628.44
2022-10-21T19:47:20.462Z,93612.00
2022-10-21T19:49:46.830Z,93616.56
2022-10-21T19:52:17.259Z,93601.81
2022-10-21T19:55:00.192Z,93619.84
2022-10-21T19:57:38.593Z,93626.63
2022-10-21T20:00:05.473Z,93627.84
2022-10-21T20:02:32.882Z,93612.19
2022-10-21T20:04:59.290Z,93635.44
2022-10-21T20:07:25.693Z,93620.69
2022-10-21T20:09:52.076Z,93621.34
2022-10-21T20:12:18.483Z,93623.19
2022-10-21T20:14:44.925Z,93614.94
2022-10-21T20:17:14.890Z,93602.13
2022-10-21T20:19:47.977Z,93624.78
2022-10-21T20:22:14.487Z,93617.91
2022-10-21T20:24:44.276Z,93628.41
2022-10-21T20:27:12.817Z,93631.88
2022-10-21T20:29:39.203Z,93648.47
2022-10-21T20:32:05.777Z,93654.75
2022-10-21T20:34:34.056Z,93650.03
2022-10-21T20:37:03.864Z,93653.34
2022-10-21T20:39:30.324Z,93648.53
2022-10-21T20:42:00.348Z,93645.81
2022-10-21T20:44:26.710Z,93647.41
2022-10-21T20:46:53.148Z,93660.69
2022-10-21T20:49:19.518Z,93648.88
2022-10-21T20:51:46.009Z,93650.03
2022-10-21T20:54:16.717Z,93657.44
2022-10-21T20:56:43.868Z,93670.00
2022-10-21T20:59:15.308Z,93681.56
2022-10-21T21:01:44.229Z,93671.69
2022-10-21T21:04:13.644Z,93677.50
2022-10-21T21:06:50.234Z,93663.66
2022-10-21T21:12:05.560Z,93643.28
2022-10-21T21:14:32.442Z,93652.53
2022-10-21T21:16:58.983Z,93600.41
2022-10-21T21:19:25.780Z,93643.66
2022-10-21T21:21:52.507Z,93656.09
2022-10-21T21:24:19.550Z,93666.44
2022-10-21T21:26:46.195Z,93675.66
2022-10-21T21:29:13.112Z,93664.56
2022-10-21T21:31:51.895Z,93669.63
2022-10-21T21:34:18.356Z,93660.28
2022-10-21T21:36:44.820Z,93673.56
2022-10-21T21:39:16.150Z,93688.41
2022-10-21T21:41:42.576Z,93676.66
2022-10-21T21:44:09.204Z,93672.31
2022-10-21T21:46:35.608Z,93678.19
2022-10-21T21:49:05.922Z,93679.91
2022-10-21T21:51:34.643Z,93653.25
2022-10-21T21:54:01.067Z,93672.56
2022-10-21T21:56:28.207Z,93677.00
2022-10-21T21:58:57.536Z,93669.94
2022-10-21T22:01:26.371Z,93668.34
2022-10-21T22:03:54.042Z,93666.72
2022-10-21T22:06:22.671Z,93667.03
2022-10-21T22:08:50.029Z,93669.09
2022-10-21T22:11:19.895Z,93666.59
2022-10-21T22:13:46.461Z,93642.97
2022-10-21T22:16:14.823Z,93668.28
2022-10-21T22:18:41.840Z,93643.06
2022-10-21T22:21:11.900Z,93636.78
2022-10-21T22:23:39.284Z,93661.25
2022-10-21T22:26:06.978Z,93668.00
2022-10-21T22:28:34.413Z,93636.78
2022-10-21T22:31:04.431Z,93646.19
2022-10-21T22:33:31.334Z,93633.47
2022-10-21T22:35:57.824Z,93653.94
2022-10-21T22:38:24.413Z,93676.69
2022-10-21T22:40:55.418Z,93655.53
2022-10-21T22:43:22.659Z,93662.09
2022-10-21T22:45:49.149Z,93646.19
2022-10-21T22:48:16.268Z,93667.72
2022-10-21T22:50:42.850Z,93652.03
2022-10-21T22:53:09.515Z,93644.34
2022-10-21T22:55:36.307Z,93639.63
2022-10-21T22:58:15.395Z,93615.25
2022-10-21T23:00:41.902Z,93619.34
2022-10-21T23:03:09.725Z,93648.88
2022-10-21T23:05:36.287Z,93639.53
2022-10-21T23:08:02.712Z,93654.19
2022-10-21T23:10:29.127Z,93656.97
2022-10-21T23:12:55.527Z,93622.56
2022-10-21T23:15:21.922Z,93636.38
2022-10-21T23:17:48.317Z,93651.91
2022-10-21T23:20:15.104Z,93671.31
2022-10-21T23:22:41.918Z,93648.06
2022-10-21T23:25:08.929Z,93664.38
2022-10-21T23:27:35.359Z,93664.50
2022-10-21T23:30:01.774Z,93661.44
2022-10-21T23:32:28.172Z,93661.88
2022-10-21T23:34:54.583Z,93685.66
2022-10-21T23:39:52.434Z,93696.50
2022-10-21T23:42:18.937Z,93705.44
2022-10-21T23:44:51.344Z,93686.63
2022-10-21T23:47:17.731Z,93712.34
2022-10-21T23:49:44.124Z,93675.25
2022-10-21T23:52:10.597Z,93668.63
2022-10-21T23:54:37.002Z,93682.59
2022-10-21T23:57:04.181Z,93710.97
2022-10-21T23:59:30.601Z,93700.09
